sensor_id;sensor_type;location;lat;lon;timestamp;P1;durP1;ratioP1;P2;durP2;ratioP2
3083;SDS011;1552;51.952;7.618;2023-03-12T00:01:28;19.17;;;10.80;;
3083;SDS011;1552;51.952;7.618;2023-03-12T00:03:57;24.13;;;10.67;;
3083;SDS011;1552;51.952;7.618;2023-03-12T00:06:23;18.63;;;10.43;;
3083;SDS011;1552;51.952;7.618;2023-03-12T00:08:50;16.10;;;9.70;;
3083;SDS011;1552;51.952;7.618;2023-03-12T00:11:17;17.17;;;10.13;;
3083;SDS011;1552;51.952;7.618;2023-03-12T00:13:43;18.37;;;9.23;;
3083;SDS011;1552;51.952;7.618;2023-03-12T00:16:11;16.13;;;9.03;;
3083;SDS011;1552;51.952;7.618;2023-03-12T00:18:38;18.40;;;9.27;;
3083;SDS011;1552;51.952;7.618;2023-03-12T00:21:05;16.13;;;9.20;;
3083;SDS011;1552;51.952;7.618;2023-03-12T00:23:32;19.27;;;9.63;;
3083;SDS011;1552;51.952;7.618;2023-03-12T00:25:59;15.13;;;8.90;;
3083;SDS011;1552;51.952;7.618;2023-03-12T00:28:25;17.53;;;8.90;;
3083;SDS011;1552;51.952;7.618;2023-03-12T00:30:52;15.10;;;8.53;;
3083;SDS011;1552;51.952;7.618;2023-03-12T00:33:19;13.67;;;7.57;;
3083;SDS011;1552;51.952;7.618;2023-03-12T00:35:46;15.70;;;8.07;;
3083;SDS011;1552;51.952;7.618;2023-03-12T00:38:12;13.87;;;7.53;;
3083;SDS011;1552;51.952;7.618;2023-03-12T00:40:38;11.47;;;7.30;;
3083;SDS011;1552;51.952;7.618;2023-03-12T00:43:05;13.63;;;7.70;;
3083;SDS011;1552;51.952;7.618;2023-03-12T00:45:31;13.73;;;7.47;;
3083;SDS011;1552;51.952;7.618;2023-03-12T00:47:57;10.97;;;7.03;;
3083;SDS011;1552;51.952;7.618;2023-03-12T00:50:25;17.63;;;7.80;;
3083;SDS011;1552;51.952;7.618;2023-03-12T00:52:51;14.63;;;7.00;;
3083;SDS011;1552;51.952;7.618;2023-03-12T00:55:18;9.17;;;6.10;;
3083;SDS011;1552;51.952;7.618;2023-03-12T00:57:44;21.30;;;7.10;;
3083;SDS011;1552;51.952;7.618;2023-03-12T01:00:11;11.53;;;6.33;;
3083;SDS011;1552;51.952;7.618;2023-03-12T01:02:37;9.43;;;6.23;;
3083;SDS011;1552;51.952;7.618;2023-03-12T01:05:05;12.73;;;6.27;;
3083;SDS011;1552;51.952;7.618;2023-03-12T01:07:33;9.07;;;5.57;;
3083;SDS011;1552;51.952;7.618;2023-03-12T01:10:00;11.30;;;5.67;;
3083;SDS011;1552;51.952;7.618;2023-03-12T01:12:26;9.87;;;5.80;;
3083;SDS011;1552;51.952;7.618;2023-03-12T01:14:52;13.07;;;6.60;;
3083;SDS011;1552;51.952;7.618;2023-03-12T01:17:19;12.13;;;6.10;;
3083;SDS011;1552;51.952;7.618;2023-03-12T01:19:45;7.60;;;5.07;;
3083;SDS011;1552;51.952;7.618;2023-03-12T01:22:11;15.30;;;6.83;;
3083;SDS011;1552;51.952;7.618;2023-03-12T01:24:39;19.17;;;7.50;;
3083;SDS011;1552;51.952;7.618;2023-03-12T01:27:05;11.23;;;5.77;;
3083;SDS011;1552;51.952;7.618;2023-03-12T01:29:32;10.33;;;5.00;;
3083;SDS011;1552;51.952;7.618;2023-03-12T01:31:58;9.30;;;5.37;;
3083;SDS011;1552;51.952;7.618;2023-03-12T01:34:24;10.27;;;6.23;;
3083;SDS011;1552;51.952;7.618;2023-03-12T01:36:51;11.13;;;5.73;;
3083;SDS011;1552;51.952;7.618;2023-03-12T01:39:17;10.37;;;5.73;;
3083;SDS011;1552;51.952;7.618;2023-03-12T01:41:45;11.33;;;5.40;;
3083;SDS011;1552;51.952;7.618;2023-03-12T01:44:12;10.23;;;5.63;;
3083;SDS011;1552;51.952;7.618;2023-03-12T01:46:39;10.03;;;5.77;;
3083;SDS011;1552;51.952;7.618;2023-03-12T01:49:07;9.13;;;5.60;;
3083;SDS011;1552;51.952;7.618;2023-03-12T01:51:35;12.67;;;5.60;;
3083;SDS011;1552;51.952;7.618;2023-03-12T01:54:04;12.00;;;5.77;;
3083;SDS011;1552;51.952;7.618;2023-03-12T01:56:31;8.13;;;5.40;;
3083;SDS011;1552;51.952;7.618;2023-03-12T01:59:02;14.50;;;5.60;;
3083;SDS011;1552;51.952;7.618;2023-03-12T02:01:28;11.13;;;5.60;;
3083;SDS011;1552;51.952;7.618;2023-03-12T02:03:55;9.07;;;5.93;;
3083;SDS011;1552;51.952;7.618;2023-03-12T02:06:24;14.70;;;6.43;;
3083;SDS011;1552;51.952;7.618;2023-03-12T02:08:53;12.33;;;5.73;;
3083;SDS011;1552;51.952;7.618;2023-03-12T02:11:20;10.07;;;6.10;;
3083;SDS011;1552;51.952;7.618;2023-03-12T02:13:46;11.10;;;5.83;;
3083;SDS011;1552;51.952;7.618;2023-03-12T02:16:14;9.40;;;5.80;;
3083;SDS011;1552;51.952;7.618;2023-03-12T02:18:41;8.80;;;5.53;;
3083;SDS011;1552;51.952;7.618;2023-03-12T02:21:10;9.30;;;5.70;;
3083;SDS011;1552;51.952;7.618;2023-03-12T02:23:40;8.83;;;5.47;;
3083;SDS011;1552;51.952;7.618;2023-03-12T02:26:09;12.83;;;5.43;;
3083;SDS011;1552;51.952;7.618;2023-03-12T02:28:36;10.83;;;5.67;;
3083;SDS011;1552;51.952;7.618;2023-03-12T02:31:08;13.80;;;6.00;;
3083;SDS011;1552;51.952;7.618;2023-03-12T02:33:35;8.83;;;5.77;;
3083;SDS011;1552;51.952;7.618;2023-03-12T02:36:02;12.17;;;5.33;;
3083;SDS011;1552;51.952;7.618;2023-03-12T02:38:33;7.87;;;5.10;;
3083;SDS011;1552;51.952;7.618;2023-03-12T02:41:01;12.00;;;5.83;;
3083;SDS011;1552;51.952;7.618;2023-03-12T02:43:30;11.30;;;5.67;;
3083;SDS011;1552;51.952;7.618;2023-03-12T02:45:56;7.90;;;5.30;;
3083;SDS011;1552;51.952;7.618;2023-03-12T02:48:23;8.77;;;4.97;;
3083;SDS011;1552;51.952;7.618;2023-03-12T02:50:49;10.80;;;5.20;;
3083;SDS011;1552;51.952;7.618;2023-03-12T02:53:15;8.97;;;4.83;;
3083;SDS011;1552;51.952;7.618;2023-03-12T02:55:42;10.17;;;5.50;;
3083;SDS011;1552;51.952;7.618;2023-03-12T02:58:08;11.50;;;5.37;;
3083;SDS011;1552;51.952;7.618;2023-03-12T03:00:36;7.30;;;5.20;;
3083;SDS011;1552;51.952;7.618;2023-03-12T03:03:02;11.37;;;4.63;;
3083;SDS011;1552;51.952;7.618;2023-03-12T03:05:29;9.23;;;5.13;;
3083;SDS011;1552;51.952;7.618;2023-03-12T03:07:55;8.57;;;5.10;;
3083;SDS011;1552;51.952;7.618;2023-03-12T03:10:22;12.93;;;6.00;;
3083;SDS011;1552;51.952;7.618;2023-03-12T03:12:48;7.50;;;5.07;;
3083;SDS011;1552;51.952;7.618;2023-03-12T03:15:15;9.40;;;4.97;;
3083;SDS011;1552;51.952;7.618;2023-03-12T03:17:43;7.07;;;4.90;;
3083;SDS011;1552;51.952;7.618;2023-03-12T03:20:09;9.07;;;5.33;;
3083;SDS011;1552;51.952;7.618;2023-03-12T03:22:36;12.10;;;5.30;;
3083;SDS011;1552;51.952;7.618;2023-03-12T03:25:03;11.10;;;5.77;;
3083;SDS011;1552;51.952;7.618;2023-03-12T03:27:30;8.73;;;5.70;;
3083;SDS011;1552;51.952;7.618;2023-03-12T03:29:56;9.97;;;5.70;;
3083;SDS011;1552;51.952;7.618;2023-03-12T03:32:23;6.97;;;5.07;;
3083;SDS011;1552;51.952;7.618;2023-03-12T03:34:51;10.40;;;5.53;;
3083;SDS011;1552;51.952;7.618;2023-03-12T03:37:17;13.23;;;6.00;;
3083;SDS011;1552;51.952;7.618;2023-03-12T03:39:43;15.67;;;5.40;;
3083;SDS011;1552;51.952;7.618;2023-03-12T03:42:10;8.70;;;5.80;;
3083;SDS011;1552;51.952;7.618;2023-03-12T03:44:36;12.73;;;6.53;;
3083;SDS011;1552;51.952;7.618;2023-03-12T03:47:02;11.13;;;5.87;;
3083;SDS011;1552;51.952;7.618;2023-03-12T03:49:29;8.37;;;5.07;;
3083;SDS011;1552;51.952;7.618;2023-03-12T03:51:56;10.47;;;5.53;;
3083;SDS011;1552;51.952;7.618;2023-03-12T03:54:23;9.57;;;6.03;;
3083;SDS011;1552;51.952;7.618;2023-03-12T03:56:49;11.87;;;5.87;;
3083;SDS011;1552;51.952;7.618;2023-03-12T03:59:15;10.80;;;5.57;;
3083;SDS011;1552;51.952;7.618;2023-03-12T04:01:42;9.40;;;5.33;;
3083;SDS011;1552;51.952;7.618;2023-03-12T04:04:08;7.43;;;5.30;;
3083;SDS011;1552;51.952;7.618;2023-03-12T04:06:34;7.07;;;5.63;;
3083;SDS011;1552;51.952;7.618;2023-03-12T04:09:02;9.77;;;5.40;;
3083;SDS011;1552;51.952;7.618;2023-03-12T04:11:29;8.60;;;5.33;;
3083;SDS011;1552;51.952;7.618;2023-03-12T04:13:56;11.53;;;5.83;;
3083;SDS011;1552;51.952;7.618;2023-03-12T04:16:22;11.67;;;5.53;;
3083;SDS011;1552;51.952;7.618;2023-03-12T04:18:49;9.13;;;6.33;;
3083;SDS011;1552;51.952;7.618;2023-03-12T04:21:15;12.63;;;5.33;;
3083;SDS011;1552;51.952;7.618;2023-03-12T04:23:42;8.30;;;5.30;;
3083;SDS011;1552;51.952;7.618;2023-03-12T04:26:09;7.10;;;4.47;;
3083;SDS011;1552;51.952;7.618;2023-03-12T04:28:36;7.77;;;4.50;;
3083;SDS011;1552;51.952;7.618;2023-03-12T04:31:03;7.87;;;4.57;;
3083;SDS011;1552;51.952;7.618;2023-03-12T04:33:31;8.83;;;4.87;;
3083;SDS011;1552;51.952;7.618;2023-03-12T04:35:57;10.03;;;4.63;;
3083;SDS011;1552;51.952;7.618;2023-03-12T04:38:24;7.70;;;4.57;;
3083;SDS011;1552;51.952;7.618;2023-03-12T04:40:56;5.97;;;4.47;;
3083;SDS011;1552;51.952;7.618;2023-03-12T04:43:24;9.47;;;5.00;;
3083;SDS011;1552;51.952;7.618;2023-03-12T04:45:50;4.97;;;4.23;;
3083;SDS011;1552;51.952;7.618;2023-03-12T04:48:16;8.70;;;4.53;;
3083;SDS011;1552;51.952;7.618;2023-03-12T04:50:43;5.17;;;3.90;;
3083;SDS011;1552;51.952;7.618;2023-03-12T04:53:09;12.20;;;4.50;;
3083;SDS011;1552;51.952;7.618;2023-03-12T04:55:36;8.97;;;4.03;;
3083;SDS011;1552;51.952;7.618;2023-03-12T04:58:02;9.20;;;4.23;;
3083;SDS011;1552;51.952;7.618;2023-03-12T05:00:30;6.83;;;4.40;;
3083;SDS011;1552;51.952;7.618;2023-03-12T05:02:56;5.73;;;4.10;;
3083;SDS011;1552;51.952;7.618;2023-03-12T05:05:23;6.60;;;4.20;;
3083;SDS011;1552;51.952;7.618;2023-03-12T05:07:49;7.83;;;3.57;;
3083;SDS011;1552;51.952;7.618;2023-03-12T05:10:15;7.57;;;4.17;;
3083;SDS011;1552;51.952;7.618;2023-03-12T05:12:42;9.17;;;3.90;;
3083;SDS011;1552;51.952;7.618;2023-03-12T05:15:09;5.23;;;3.10;;
3083;SDS011;1552;51.952;7.618;2023-03-12T05:17:36;7.47;;;3.73;;
3083;SDS011;1552;51.952;7.618;2023-03-12T05:20:03;5.57;;;3.70;;
3083;SDS011;1552;51.952;7.618;2023-03-12T05:22:30;9.23;;;3.37;;
3083;SDS011;1552;51.952;7.618;2023-03-12T05:24:56;5.10;;;3.70;;
3083;SDS011;1552;51.952;7.618;2023-03-12T05:27:22;6.43;;;3.30;;
3083;SDS011;1552;51.952;7.618;2023-03-12T05:29:50;5.67;;;3.07;;
3083;SDS011;1552;51.952;7.618;2023-03-12T05:32:16;6.97;;;3.10;;
3083;SDS011;1552;51.952;7.618;2023-03-12T05:34:44;5.30;;;3.50;;
3083;SDS011;1552;51.952;7.618;2023-03-12T05:37:10;7.57;;;4.03;;
3083;SDS011;1552;51.952;7.618;2023-03-12T05:39:37;6.73;;;3.50;;
3083;SDS011;1552;51.952;7.618;2023-03-12T05:42:05;5.10;;;3.30;;
3083;SDS011;1552;51.952;7.618;2023-03-12T05:44:31;9.57;;;3.80;;
3083;SDS011;1552;51.952;7.618;2023-03-12T05:46:59;7.50;;;3.40;;
3083;SDS011;1552;51.952;7.618;2023-03-12T05:49:25;7.50;;;3.00;;
3083;SDS011;1552;51.952;7.618;2023-03-12T05:51:53;7.33;;;3.20;;
3083;SDS011;1552;51.952;7.618;2023-03-12T05:54:19;7.07;;;3.30;;
3083;SDS011;1552;51.952;7.618;2023-03-12T05:56:46;3.83;;;3.00;;
3083;SDS011;1552;51.952;7.618;2023-03-12T05:59:12;5.90;;;2.80;;
3083;SDS011;1552;51.952;7.618;2023-03-12T06:01:39;8.10;;;3.33;;
3083;SDS011;1552;51.952;7.618;2023-03-12T06:04:05;6.90;;;2.80;;
3083;SDS011;1552;51.952;7.618;2023-03-12T06:06:32;5.83;;;3.53;;
3083;SDS011;1552;51.952;7.618;2023-03-12T06:09:00;6.70;;;3.40;;
3083;SDS011;1552;51.952;7.618;2023-03-12T06:11:28;4.33;;;2.67;;
3083;SDS011;1552;51.952;7.618;2023-03-12T06:13:54;4.50;;;2.67;;
3083;SDS011;1552;51.952;7.618;2023-03-12T06:16:21;5.73;;;2.90;;
3083;SDS011;1552;51.952;7.618;2023-03-12T06:18:48;5.97;;;3.00;;
3083;SDS011;1552;51.952;7.618;2023-03-12T06:21:18;8.37;;;2.90;;
3083;SDS011;1552;51.952;7.618;2023-03-12T06:23:44;8.67;;;3.23;;
3083;SDS011;1552;51.952;7.618;2023-03-12T06:26:12;7.93;;;3.17;;
3083;SDS011;1552;51.952;7.618;2023-03-12T06:28:39;8.20;;;2.90;;
3083;SDS011;1552;51.952;7.618;2023-03-12T06:31:05;4.73;;;3.20;;
3083;SDS011;1552;51.952;7.618;2023-03-12T06:33:32;7.37;;;2.77;;
3083;SDS011;1552;51.952;7.618;2023-03-12T06:35:59;5.23;;;2.83;;
3083;SDS011;1552;51.952;7.618;2023-03-12T06:38:26;4.17;;;2.97;;
3083;SDS011;1552;51.952;7.618;2023-03-12T06:40:53;4.83;;;2.80;;
3083;SDS011;1552;51.952;7.618;2023-03-12T06:43:22;6.53;;;2.87;;
3083;SDS011;1552;51.952;7.618;2023-03-12T06:45:48;4.73;;;3.13;;
3083;SDS011;1552;51.952;7.618;2023-03-12T06:48:14;3.67;;;2.50;;
3083;SDS011;1552;51.952;7.618;2023-03-12T06:50:41;7.03;;;2.60;;
3083;SDS011;1552;51.952;7.618;2023-03-12T06:53:07;5.37;;;2.60;;
3083;SDS011;1552;51.952;7.618;2023-03-12T06:55:33;4.13;;;2.30;;
3083;SDS011;1552;51.952;7.618;2023-03-12T06:58:00;6.30;;;2.77;;
3083;SDS011;1552;51.952;7.618;2023-03-12T07:00:29;6.90;;;2.97;;
3083;SDS011;1552;51.952;7.618;2023-03-12T07:02:55;6.23;;;2.90;;
3083;SDS011;1552;51.952;7.618;2023-03-12T07:05:22;4.93;;;2.70;;
3083;SDS011;1552;51.952;7.618;2023-03-12T07:07:48;7.50;;;2.77;;
3083;SDS011;1552;51.952;7.618;2023-03-12T07:10:15;7.73;;;2.70;;
3083;SDS011;1552;51.952;7.618;2023-03-12T07:12:42;6.13;;;3.00;;
3083;SDS011;1552;51.952;7.618;2023-03-12T07:15:08;4.80;;;3.07;;
3083;SDS011;1552;51.952;7.618;2023-03-12T07:17:36;9.27;;;3.27;;
3083;SDS011;1552;51.952;7.618;2023-03-12T07:20:03;8.63;;;3.13;;
3083;SDS011;1552;51.952;7.618;2023-03-12T07:22:29;8.40;;;3.27;;
3083;SDS011;1552;51.952;7.618;2023-03-12T07:24:55;6.73;;;2.43;;
3083;SDS011;1552;51.952;7.618;2023-03-12T07:27:22;6.03;;;2.50;;
3083;SDS011;1552;51.952;7.618;2023-03-12T07:29:48;5.43;;;2.47;;
3083;SDS011;1552;51.952;7.618;2023-03-12T07:32:15;6.97;;;2.93;;
3083;SDS011;1552;51.952;7.618;2023-03-12T07:34:43;8.03;;;2.70;;
3083;SDS011;1552;51.952;7.618;2023-03-12T07:37:09;7.60;;;2.50;;
3083;SDS011;1552;51.952;7.618;2023-03-12T07:39:35;11.53;;;2.60;;
3083;SDS011;1552;51.952;7.618;2023-03-12T07:42:02;6.07;;;2.57;;
3083;SDS011;1552;51.952;7.618;2023-03-12T07:44:28;7.50;;;2.33;;
3083;SDS011;1552;51.952;7.618;2023-03-12T07:46:55;3.23;;;2.40;;
3083;SDS011;1552;51.952;7.618;2023-03-12T07:49:21;4.20;;;2.17;;
3083;SDS011;1552;51.952;7.618;2023-03-12T07:51:49;4.13;;;2.37;;
3083;SDS011;1552;51.952;7.618;2023-03-12T07:54:15;6.60;;;2.60;;
3083;SDS011;1552;51.952;7.618;2023-03-12T07:56:41;7.73;;;2.77;;
3083;SDS011;1552;51.952;7.618;2023-03-12T07:59:08;6.73;;;2.40;;
3083;SDS011;1552;51.952;7.618;2023-03-12T08:01:34;3.87;;;2.30;;
3083;SDS011;1552;51.952;7.618;2023-03-12T08:04:01;5.17;;;2.20;;
3083;SDS011;1552;51.952;7.618;2023-03-12T08:06:27;5.70;;;2.47;;
3083;SDS011;1552;51.952;7.618;2023-03-12T08:08:55;4.23;;;2.33;;
3083;SDS011;1552;51.952;7.618;2023-03-12T08:11:22;5.43;;;2.27;;
3083;SDS011;1552;51.952;7.618;2023-03-12T08:13:48;7.33;;;2.40;;
3083;SDS011;1552;51.952;7.618;2023-03-12T08:16:14;6.77;;;2.20;;
3083;SDS011;1552;51.952;7.618;2023-03-12T08:18:42;10.07;;;2.43;;
3083;SDS011;1552;51.952;7.618;2023-03-12T08:21:08;6.83;;;2.90;;
3083;SDS011;1552;51.952;7.618;2023-03-12T08:23:35;9.00;;;2.93;;
3083;SDS011;1552;51.952;7.618;2023-03-12T08:26:03;4.27;;;2.47;;
3083;SDS011;1552;51.952;7.618;2023-03-12T08:28:30;4.43;;;2.50;;
3083;SDS011;1552;51.952;7.618;2023-03-12T08:30:57;6.93;;;2.30;;
3083;SDS011;1552;51.952;7.618;2023-03-12T08:33:24;7.60;;;2.50;;
3083;SDS011;1552;51.952;7.618;2023-03-12T08:35:50;12.80;;;2.73;;
3083;SDS011;1552;51.952;7.618;2023-03-12T08:38:16;3.83;;;2.80;;
3083;SDS011;1552;51.952;7.618;2023-03-12T08:40:43;9.33;;;3.00;;
3083;SDS011;1552;51.952;7.618;2023-03-12T08:43:11;10.10;;;3.33;;
3083;SDS011;1552;51.952;7.618;2023-03-12T08:45:37;5.13;;;3.40;;
3083;SDS011;1552;51.952;7.618;2023-03-12T08:48:04;7.83;;;3.20;;
3083;SDS011;1552;51.952;7.618;2023-03-12T08:50:30;8.07;;;3.50;;
3083;SDS011;1552;51.952;7.618;2023-03-12T08:52:57;9.03;;;3.70;;
3083;SDS011;1552;51.952;7.618;2023-03-12T08:55:24;6.40;;;3.20;;
3083;SDS011;1552;51.952;7.618;2023-03-12T08:57:51;5.57;;;2.77;;
3083;SDS011;1552;51.952;7.618;2023-03-12T09:00:20;6.70;;;3.30;;
3083;SDS011;1552;51.952;7.618;2023-03-12T09:02:46;5.43;;;3.30;;
3083;SDS011;1552;51.952;7.618;2023-03-12T09:05:14;9.13;;;3.60;;
3083;SDS011;1552;51.952;7.618;2023-03-12T09:07:40;4.93;;;3.30;;
3083;SDS011;1552;51.952;7.618;2023-03-12T09:10:07;6.47;;;3.73;;
3083;SDS011;1552;51.952;7.618;2023-03-12T09:12:33;7.10;;;3.20;;
3083;SDS011;1552;51.952;7.618;2023-03-12T09:14:59;6.57;;;3.23;;
3083;SDS011;1552;51.952;7.618;2023-03-12T09:17:28;9.53;;;3.57;;
3083;SDS011;1552;51.952;7.618;2023-03-12T09:19:55;6.53;;;3.47;;
3083;SDS011;1552;51.952;7.618;2023-03-12T09:22:21;11.07;;;3.50;;
3083;SDS011;1552;51.952;7.618;2023-03-12T09:24:47;5.27;;;3.00;;
3083;SDS011;1552;51.952;7.618;2023-03-12T09:27:14;11.70;;;3.93;;
3083;SDS011;1552;51.952;7.618;2023-03-12T09:29:40;6.87;;;3.40;;
3083;SDS011;1552;51.952;7.618;2023-03-12T09:32:07;7.87;;;3.60;;
3083;SDS011;1552;51.952;7.618;2023-03-12T09:34:34;5.80;;;3.73;;
3083;SDS011;1552;51.952;7.618;2023-03-12T09:37:01;8.20;;;3.97;;
3083;SDS011;1552;51.952;7.618;2023-03-12T09:39:27;6.23;;;3.47;;
3083;SDS011;1552;51.952;7.618;2023-03-12T09:41:53;5.77;;;4.53;;
3083;SDS011;1552;51.952;7.618;2023-03-12T09:44:22;6.43;;;3.70;;
3083;SDS011;1552;51.952;7.618;2023-03-12T09:46:51;4.43;;;3.30;;
3083;SDS011;1552;51.952;7.618;2023-03-12T09:49:21;8.83;;;3.60;;
3083;SDS011;1552;51.952;7.618;2023-03-12T09:51:52;13.37;;;5.43;;
3083;SDS011;1552;51.952;7.618;2023-03-12T09:54:21;5.50;;;3.70;;
3083;SDS011;1552;51.952;7.618;2023-03-12T09:56:49;7.10;;;3.97;;
3083;SDS011;1552;51.952;7.618;2023-03-12T09:59:16;8.20;;;4.60;;
3083;SDS011;1552;51.952;7.618;2023-03-12T10:01:43;8.63;;;4.17;;
3083;SDS011;1552;51.952;7.618;2023-03-12T10:04:17;9.80;;;4.30;;
3083;SDS011;1552;51.952;7.618;2023-03-12T10:06:47;14.70;;;5.97;;
3083;SDS011;1552;51.952;7.618;2023-03-12T10:09:22;17.10;;;7.40;;
3083;SDS011;1552;51.952;7.618;2023-03-12T10:11:53;13.23;;;6.70;;
3083;SDS011;1552;51.952;7.618;2023-03-12T10:14:25;9.13;;;5.43;;
3083;SDS011;1552;51.952;7.618;2023-03-12T10:16:58;10.63;;;4.97;;
3083;SDS011;1552;51.952;7.618;2023-03-12T10:19:34;11.97;;;5.80;;
3083;SDS011;1552;51.952;7.618;2023-03-12T10:22:04;8.50;;;5.30;;
3083;SDS011;1552;51.952;7.618;2023-03-12T10:24:37;9.80;;;5.37;;
3083;SDS011;1552;51.952;7.618;2023-03-12T10:27:08;12.33;;;5.40;;
3083;SDS011;1552;51.952;7.618;2023-03-12T10:29:36;12.63;;;5.83;;
3083;SDS011;1552;51.952;7.618;2023-03-12T10:32:04;10.13;;;5.70;;
3083;SDS011;1552;51.952;7.618;2023-03-12T10:34:33;11.53;;;6.53;;
3083;SDS011;1552;51.952;7.618;2023-03-12T10:37:04;9.10;;;6.07;;
3083;SDS011;1552;51.952;7.618;2023-03-12T10:39:37;13.50;;;7.40;;
3083;SDS011;1552;51.952;7.618;2023-03-12T10:42:07;10.67;;;6.73;;
3083;SDS011;1552;51.952;7.618;2023-03-12T10:44:37;15.97;;;7.50;;
3083;SDS011;1552;51.952;7.618;2023-03-12T10:47:05;14.03;;;7.53;;
3083;SDS011;1552;51.952;7.618;2023-03-12T10:49:32;13.53;;;7.70;;
3083;SDS011;1552;51.952;7.618;2023-03-12T10:52:03;10.07;;;7.30;;
3083;SDS011;1552;51.952;7.618;2023-03-12T10:54:31;12.67;;;7.37;;
3083;SDS011;1552;51.952;7.618;2023-03-12T10:56:59;10.20;;;7.83;;
3083;SDS011;1552;51.952;7.618;2023-03-12T10:59:26;15.27;;;9.13;;
3083;SDS011;1552;51.952;7.618;2023-03-12T11:01:53;16.57;;;10.30;;
3083;SDS011;1552;51.952;7.618;2023-03-12T11:04:20;16.83;;;9.60;;
3083;SDS011;1552;51.952;7.618;2023-03-12T11:09:29;12.50;;;7.80;;
3083;SDS011;1552;51.952;7.618;2023-03-12T11:11:56;10.77;;;8.40;;
3083;SDS011;1552;51.952;7.618;2023-03-12T11:14:24;14.33;;;8.30;;
3083;SDS011;1552;51.952;7.618;2023-03-12T11:16:51;13.60;;;8.50;;
3083;SDS011;1552;51.952;7.618;2023-03-12T11:19:26;15.63;;;9.87;;
3083;SDS011;1552;51.952;7.618;2023-03-12T11:21:54;15.67;;;10.87;;
3083;SDS011;1552;51.952;7.618;2023-03-12T11:24:20;12.90;;;9.37;;
3083;SDS011;1552;51.952;7.618;2023-03-12T11:26:47;18.17;;;11.83;;
3083;SDS011;1552;51.952;7.618;2023-03-12T11:29:16;13.67;;;10.10;;
3083;SDS011;1552;51.952;7.618;2023-03-12T11:31:49;14.40;;;10.90;;
3083;SDS011;1552;51.952;7.618;2023-03-12T11:34:20;15.57;;;11.70;;
3083;SDS011;1552;51.952;7.618;2023-03-12T11:36:49;18.07;;;12.90;;
3083;SDS011;1552;51.952;7.618;2023-03-12T11:39:23;18.60;;;12.93;;
3083;SDS011;1552;51.952;7.618;2023-03-12T11:42:04;18.60;;;12.87;;
3083;SDS011;1552;51.952;7.618;2023-03-12T11:44:34;16.70;;;13.10;;
3083;SDS011;1552;51.952;7.618;2023-03-12T11:47:12;20.00;;;14.00;;
3083;SDS011;1552;51.952;7.618;2023-03-12T11:49:46;19.63;;;14.10;;
3083;SDS011;1552;51.952;7.618;2023-03-12T11:52:15;23.07;;;14.17;;
3083;SDS011;1552;51.952;7.618;2023-03-12T11:54:52;22.97;;;15.83;;
3083;SDS011;1552;51.952;7.618;2023-03-12T11:57:25;19.87;;;15.37;;
3083;SDS011;1552;51.952;7.618;2023-03-12T11:59:57;23.13;;;14.80;;
3083;SDS011;1552;51.952;7.618;2023-03-12T12:02:44;22.80;;;15.43;;
3083;SDS011;1552;51.952;7.618;2023-03-12T12:05:20;22.27;;;16.73;;
3083;SDS011;1552;51.952;7.618;2023-03-12T12:07:51;21.77;;;15.93;;
3083;SDS011;1552;51.952;7.618;2023-03-12T12:10:21;25.80;;;17.43;;
3083;SDS011;1552;51.952;7.618;2023-03-12T12:12:51;22.53;;;17.50;;
3083;SDS011;1552;51.952;7.618;2023-03-12T12:15:21;28.17;;;18.47;;
3083;SDS011;1552;51.952;7.618;2023-03-12T12:17:55;28.93;;;19.33;;
3083;SDS011;1552;51.952;7.618;2023-03-12T12:20:27;23.07;;;16.07;;
3083;SDS011;1552;51.952;7.618;2023-03-12T12:23:00;26.13;;;17.57;;
3083;SDS011;1552;51.952;7.618;2023-03-12T12:25:31;27.10;;;17.90;;
3083;SDS011;1552;51.952;7.618;2023-03-12T12:28:06;24.80;;;17.97;;
3083;SDS011;1552;51.952;7.618;2023-03-12T12:30:38;26.67;;;18.23;;
3083;SDS011;1552;51.952;7.618;2023-03-12T12:33:13;26.47;;;17.53;;
3083;SDS011;1552;51.952;7.618;2023-03-12T12:35:42;27.53;;;18.40;;
3083;SDS011;1552;51.952;7.618;2023-03-12T12:38:09;25.90;;;18.67;;
3083;SDS011;1552;51.952;7.618;2023-03-12T12:40:37;23.07;;;18.57;;
3083;SDS011;1552;51.952;7.618;2023-03-12T12:43:09;29.80;;;19.30;;
3083;SDS011;1552;51.952;7.618;2023-03-12T12:45:40;26.80;;;18.07;;
3083;SDS011;1552;51.952;7.618;2023-03-12T12:48:07;27.70;;;19.07;;
3083;SDS011;1552;51.952;7.618;2023-03-12T12:50:37;28.13;;;18.30;;
3083;SDS011;1552;51.952;7.618;2023-03-12T12:53:06;24.30;;;17.00;;
3083;SDS011;1552;51.952;7.618;2023-03-12T12:55:35;23.83;;;16.80;;
3083;SDS011;1552;51.952;7.618;2023-03-12T12:58:06;29.47;;;18.77;;
3083;SDS011;1552;51.952;7.618;2023-03-12T13:00:43;25.93;;;18.43;;
3083;SDS011;1552;51.952;7.618;2023-03-12T13:03:11;30.60;;;18.10;;
3083;SDS011;1552;51.952;7.618;2023-03-12T13:05:43;29.77;;;18.90;;
3083;SDS011;1552;51.952;7.618;2023-03-12T13:08:30;24.93;;;17.30;;
3083;SDS011;1552;51.952;7.618;2023-03-12T13:10:57;30.93;;;18.77;;
3083;SDS011;1552;51.952;7.618;2023-03-12T13:13:23;29.03;;;17.07;;
3083;SDS011;1552;51.952;7.618;2023-03-12T13:15:49;23.50;;;17.20;;
3083;SDS011;1552;51.952;7.618;2023-03-12T13:18:17;26.07;;;17.10;;
3083;SDS011;1552;51.952;7.618;2023-03-12T13:20:58;25.40;;;17.20;;
3083;SDS011;1552;51.952;7.618;2023-03-12T13:23:29;32.20;;;18.83;;
3083;SDS011;1552;51.952;7.618;2023-03-12T13:25:58;25.67;;;16.83;;
3083;SDS011;1552;51.952;7.618;2023-03-12T13:28:30;27.17;;;18.23;;
3083;SDS011;1552;51.952;7.618;2023-03-12T13:30:59;27.37;;;16.17;;
3083;SDS011;1552;51.952;7.618;2023-03-12T13:33:37;29.90;;;17.53;;
3083;SDS011;1552;51.952;7.618;2023-03-12T13:36:09;30.20;;;18.53;;
3083;SDS011;1552;51.952;7.618;2023-03-12T13:38:37;29.87;;;18.00;;
3083;SDS011;1552;51.952;7.618;2023-03-12T13:41:05;27.60;;;17.70;;
3083;SDS011;1552;51.952;7.618;2023-03-12T13:43:39;26.43;;;17.23;;
3083;SDS011;1552;51.952;7.618;2023-03-12T13:46:06;31.70;;;18.27;;
3083;SDS011;1552;51.952;7.618;2023-03-12T13:48:34;30.17;;;19.07;;
3083;SDS011;1552;51.952;7.618;2023-03-12T13:51:03;33.27;;;19.63;;
3083;SDS011;1552;51.952;7.618;2023-03-12T13:53:37;34.53;;;19.87;;
3083;SDS011;1552;51.952;7.618;2023-03-12T13:56:06;28.17;;;19.07;;
3083;SDS011;1552;51.952;7.618;2023-03-12T13:58:37;31.60;;;18.63;;
3083;SDS011;1552;51.952;7.618;2023-03-12T14:01:05;35.57;;;19.53;;
3083;SDS011;1552;51.952;7.618;2023-03-12T14:03:33;35.60;;;19.07;;
3083;SDS011;1552;51.952;7.618;2023-03-12T14:06:05;28.73;;;18.77;;
3083;SDS011;1552;51.952;7.618;2023-03-12T14:08:40;27.13;;;17.87;;
3083;SDS011;1552;51.952;7.618;2023-03-12T14:11:15;29.83;;;18.33;;
3083;SDS011;1552;51.952;7.618;2023-03-12T14:13:52;29.40;;;17.20;;
3083;SDS011;1552;51.952;7.618;2023-03-12T14:16:21;28.07;;;16.90;;
3083;SDS011;1552;51.952;7.618;2023-03-12T14:18:50;27.27;;;16.47;;
3083;SDS011;1552;51.952;7.618;2023-03-12T14:21:17;26.83;;;17.40;;
3083;SDS011;1552;51.952;7.618;2023-03-12T14:23:48;26.40;;;16.57;;
3083;SDS011;1552;51.952;7.618;2023-03-12T14:26:16;23.00;;;15.10;;
3083;SDS011;1552;51.952;7.618;2023-03-12T14:28:44;27.07;;;16.10;;
3083;SDS011;1552;51.952;7.618;2023-03-12T14:31:13;23.47;;;15.40;;
3083;SDS011;1552;51.952;7.618;2023-03-12T14:33:44;22.17;;;14.67;;
3083;SDS011;1552;51.952;7.618;2023-03-12T14:36:14;25.57;;;14.20;;
3083;SDS011;1552;51.952;7.618;2023-03-12T14:38:41;25.07;;;14.33;;
3083;SDS011;1552;51.952;7.618;2023-03-12T14:41:10;20.87;;;13.50;;
3083;SDS011;1552;51.952;7.618;2023-03-12T14:43:38;22.93;;;13.70;;
3083;SDS011;1552;51.952;7.618;2023-03-12T14:46:11;21.27;;;12.37;;
3083;SDS011;1552;51.952;7.618;2023-03-12T14:48:38;20.43;;;13.00;;
3083;SDS011;1552;51.952;7.618;2023-03-12T14:51:05;22.13;;;12.90;;
3083;SDS011;1552;51.952;7.618;2023-03-12T14:53:32;23.53;;;12.80;;
3083;SDS011;1552;51.952;7.618;2023-03-12T14:56:03;23.50;;;11.57;;
3083;SDS011;1552;51.952;7.618;2023-03-12T14:58:32;25.60;;;13.30;;
3083;SDS011;1552;51.952;7.618;2023-03-12T15:00:59;21.33;;;12.13;;
3083;SDS011;1552;51.952;7.618;2023-03-12T15:03:26;22.43;;;12.07;;
3083;SDS011;1552;51.952;7.618;2023-03-12T15:05:54;21.90;;;11.87;;
3083;SDS011;1552;51.952;7.618;2023-03-12T15:08:20;25.27;;;12.60;;
3083;SDS011;1552;51.952;7.618;2023-03-12T15:10:47;20.70;;;11.87;;
3083;SDS011;1552;51.952;7.618;2023-03-12T15:13:14;20.17;;;11.83;;